首页
METAR-TAF:

METAR-TAF

机场 :

Savannah/Hilton Head International Airport

薩凡納, 喬治亞, 美国

纬度: 32-07-08N, 经度: 081-12-08W, 海拔: 15米

当前天气观测

该预报发布于15分钟前的22:53 UTC
风速11节,风向
温度 29°C
湿度 62%
气压 1014 hPa
能見度: 16.1公里
少量云层高于7500英尺
少量云层高于10000英尺

METAR: KSAV 202253Z 17011KT 10SM FEW075 FEW100 29/21 A2994 RMK AO2 SLP138 T02890206

时间: 19:08 (23:08 UTC)

预报

该预报发布于5小时和43分钟前的17:25 UTC
预报有效从20日的 18点(UTC)到 21日的 18点(UTC)
风速9节,风向
能見度: 10公里
散云层高于4000英尺
从 21日的 0600点(UTC)
风速4节,风向西转西南
能見度: 10公里
天空无云

TAF: KSAV 201725Z 2018/2118 17009KT P6SM SCT040 FM210600 24004KT P6SM SKC

超过4000个机场的气象观测和天气预报(METAR&TAF报告)。

可查询的气象台以黄色和红色小点在地图上表示。

将鼠标移到小点上方,可查看气象台名称。

然后点击查看天气观测和预报。

如需切换地图:点击带黑十字的绿色按钮放大地图;点击带横线的绿色按钮缩小地图;或者点击绿色箭头查看邻近地区的地图。


METAR-TAF: